Time;durP1;ratioP1;P1;durP2;ratioP2;P2;SDS_P1;SDS_P2;PMS_P1;PMS_P2;Temp;Humidity;BMP_temperature;BMP_pressure;BME280_temperature;BME280_humidity;BME280_pressure;Samples;Min_cycle;Max_cycle;Signal;HPM_P1;HPM_P2
2021/12/11 00:00:44;;;;;;;51.08;27.08;;;;;;;3.67;100.00;99482.00;5062424;28;20032;-70
2021/12/11 00:03:13;;;;;;;51.03;26.83;;;;;;;3.70;100.00;99490.59;5063173;28;20025;-70
2021/12/11 00:05:41;;;;;;;59.60;30.73;;;;;;;3.73;100.00;99487.72;5056917;28;20029;-70
2021/12/11 00:08:10;;;;;;;58.10;27.55;;;;;;;3.71;100.00;99491.47;5063343;28;20546;-70
2021/12/11 00:10:44;;;;;;;54.97;27.67;;;;;;;3.76;100.00;99494.59;5063336;28;20024;-70
2021/12/11 00:13:17;;;;;;;55.67;27.90;;;;;;;3.77;100.00;99497.13;5061317;28;20025;-70
2021/12/11 00:15:45;;;;;;;58.07;28.83;;;;;;;3.74;100.00;99493.88;5061795;28;20047;-70
2021/12/11 00:18:18;;;;;;;55.13;29.10;;;;;;;3.75;100.00;99492.91;5059373;28;20678;-70
2021/12/11 00:21:01;;;;;;;55.83;27.92;;;;;;;3.74;100.00;99502.66;5061767;28;20025;-70
2021/12/11 00:23:34;;;;;;;54.58;27.70;;;;;;;3.75;100.00;99522.09;5063575;28;20025;-70
2021/12/11 00:26:01;;;;;;;50.85;26.48;;;;;;;3.66;100.00;99512.13;5060415;28;20028;-70
2021/12/11 00:28:26;;;;;;;49.28;25.20;;;;;;;3.74;100.00;99525.69;5062970;28;20044;-70
2021/12/11 00:30:52;;;;;;;55.33;28.13;;;;;;;3.72;100.00;99525.81;5062889;28;20025;-70
2021/12/11 00:33:25;;;;;;;53.40;26.58;;;;;;;3.77;100.00;99525.47;5064740;28;20772;-70
2021/12/11 00:35:53;;;;;;;52.00;28.40;;;;;;;3.72;100.00;99517.00;5060360;28;20086;-70
2021/12/11 00:38:33;;;;;;;54.30;26.83;;;;;;;3.82;100.00;99532.13;5061234;28;20123;-70
2021/12/11 00:41:01;;;;;;;55.42;27.08;;;;;;;3.83;100.00;99528.53;5058978;28;20029;-70
2021/12/11 00:43:34;;;;;;;54.13;27.40;;;;;;;3.85;100.00;99531.06;5060647;28;20032;-70
2021/12/11 00:46:01;;;;;;;53.92;26.25;;;;;;;3.83;100.00;99538.25;5062096;28;20507;-71
2021/12/11 00:48:28;;;;;;;53.92;26.92;;;;;;;3.79;100.00;99529.72;5057743;28;20033;-70
2021/12/11 00:51:05;;;;;;;52.60;26.80;;;;;;;3.81;100.00;99524.28;5062220;28;20396;-70
2021/12/11 00:53:37;;;;;;;55.40;28.17;;;;;;;3.83;100.00;99535.63;5057015;28;20505;-70
2021/12/11 00:56:07;;;;;;;50.35;25.65;;;;;;;3.83;100.00;99527.66;5056595;28;20031;-70
2021/12/11 00:58:36;;;;;;;59.40;29.10;;;;;;;3.85;100.00;99528.41;5057304;28;20111;-70
2021/12/11 01:01:02;;;;;;;59.72;28.27;;;;;;;3.84;100.00;99542.63;5061033;28;20036;-70
2021/12/11 01:03:38;;;;;;;53.30;26.88;;;;;;;3.77;100.00;99533.44;5060658;28;20824;-70
2021/12/11 01:06:17;;;;;;;51.50;25.50;;;;;;;3.84;100.00;99546.13;5062121;28;20032;-70
2021/12/11 01:08:47;;;;;;;51.05;27.42;;;;;;;3.82;100.00;99556.00;5060369;28;20024;-70
2021/12/11 01:11:23;;;;;;;52.05;26.50;;;;;;;3.82;100.00;99555.16;5060067;28;20674;-70
2021/12/11 01:13:51;;;;;;;51.47;26.98;;;;;;;3.80;100.00;99557.91;5060417;28;20033;-70
2021/12/11 01:16:21;;;;;;;57.47;27.25;;;;;;;3.79;100.00;99558.03;5060981;28;20029;-70
2021/12/11 01:18:55;;;;;;;56.72;26.95;;;;;;;3.76;100.00;99547.63;5059294;28;20032;-71
2021/12/11 01:24:13;;;;;;;56.65;27.42;;;;;;;3.80;100.00;99554.41;5062864;28;20060;-70
2021/12/11 01:26:49;;;;;;;60.08;28.77;;;;;;;3.80;100.00;99557.06;5057673;28;20048;-70
2021/12/11 01:29:18;;;;;;;51.67;27.20;;;;;;;3.81;100.00;99553.47;5060231;28;20033;-70
2021/12/11 01:31:45;;;;;;;50.20;27.42;;;;;;;3.83;100.00;99541.78;5061483;28;20089;-70
2021/12/11 01:34:11;;;;;;;58.80;28.00;;;;;;;3.85;100.00;99550.47;5061763;28;20535;-70
2021/12/11 01:36:37;;;;;;;59.78;29.65;;;;;;;3.86;100.00;99543.34;5060030;28;20021;-70
2021/12/11 01:39:12;;;;;;;56.60;28.65;;;;;;;3.84;100.00;99532.84;5060817;28;20036;-70
2021/12/11 01:41:38;;;;;;;55.95;29.27;;;;;;;3.84;100.00;99532.03;5066006;28;20410;-70
2021/12/11 01:44:11;;;;;;;59.67;29.33;;;;;;;3.87;100.00;99531.81;5060525;28;20082;-70
2021/12/11 01:46:38;;;;;;;58.05;28.88;;;;;;;3.80;100.00;99509.31;5062582;28;20102;-70
2021/12/11 01:49:08;;;;;;;56.75;28.23;;;;;;;3.86;100.00;99519.47;5051281;28;20147;-71
2021/12/11 01:51:40;;;;;;;54.95;26.75;;;;;;;3.86;100.00;99519.47;5061508;28;20050;-70
2021/12/11 01:54:20;;;;;;;51.30;26.48;;;;;;;3.84;100.00;99522.25;5060964;28;20141;-70
2021/12/11 01:56:58;;;;;;;56.65;27.48;;;;;;;3.83;100.00;99512.59;5060377;28;20035;-70
2021/12/11 01:59:37;;;;;;;54.60;27.27;;;;;;;3.83;100.00;99511.75;5061641;28;20036;-70
2021/12/11 02:02:03;;;;;;;58.17;27.13;;;;;;;3.81;100.00;99506.56;5059629;28;20025;-70
2021/12/11 02:04:30;;;;;;;60.90;26.63;;;;;;;3.80;100.00;99511.97;5060557;28;20459;-70
2021/12/11 02:07:02;;;;;;;60.33;28.67;;;;;;;3.82;100.00;99504.75;5060458;28;20104;-70
2021/12/11 02:09:34;;;;;;;55.53;28.48;;;;;;;3.82;100.00;99487.06;5063395;28;20036;-70
2021/12/11 02:12:16;;;;;;;50.55;25.52;;;;;;;3.84;100.00;99484.28;5062217;28;20020;-71
2021/12/11 02:14:48;;;;;;;54.50;25.85;;;;;;;3.84;100.00;99474.50;5059475;28;20020;-70
2021/12/11 02:17:44;;;;;;;47.08;25.38;;;;;;;3.86;100.00;99477.03;5059209;28;20722;-70
2021/12/11 02:20:15;;;;;;;51.13;25.35;;;;;;;3.82;100.00;99470.28;5060599;28;20082;-71
2021/12/11 02:22:46;;;;;;;50.42;24.58;;;;;;;3.84;100.00;99468.38;5059912;28;20061;-70
2021/12/11 02:25:23;;;;;;;50.65;24.20;;;;;;;3.85;100.00;99467.41;5054886;28;20099;-70
2021/12/11 02:27:57;;;;;;;51.92;26.77;;;;;;;3.86;100.00;99479.69;5057609;28;20105;-70
2021/12/11 02:31:05;;;;;;;50.53;25.25;;;;;;;3.83;100.00;99477.28;5060450;28;20037;-70
2021/12/11 02:33:44;;;;;;;51.47;25.55;;;;;;;3.87;100.00;99473.47;5060453;28;20384;-70
2021/12/11 02:36:17;;;;;;;49.33;24.80;;;;;;;3.84;100.00;99476.34;5057291;28;20036;-70
2021/12/11 02:38:45;;;;;;;51.35;25.38;;;;;;;3.83;100.00;99488.75;5059195;28;20025;-70
2021/12/11 02:41:35;;;;;;;47.60;23.65;;;;;;;3.84;100.00;99494.91;5058861;28;20103;-70
2021/12/11 02:44:18;;;;;;;47.67;24.38;;;;;;;3.84;100.00;99497.56;5061355;28;20135;-70
2021/12/11 02:47:07;;;;;;;50.55;23.95;;;;;;;3.81;100.00;99495.13;5057154;28;20483;-70
2021/12/11 02:49:40;;;;;;;48.25;23.55;;;;;;;3.79;100.00;99502.34;5042162;28;20099;-71
2021/12/11 02:52:20;;;;;;;53.75;25.52;;;;;;;3.78;100.00;99505.94;5060174;28;20025;-70
2021/12/11 02:54:54;;;;;;;49.97;24.25;;;;;;;3.76;100.00;99506.06;5057753;28;20104;-70
2021/12/11 02:57:27;;;;;;;46.70;22.88;;;;;;;3.71;100.00;99491.47;5061833;28;20023;-70
2021/12/11 02:59:53;;;;;;;46.97;22.70;;;;;;;3.67;100.00;99495.25;5061174;28;20025;-70
2021/12/11 03:02:26;;;;;;;52.65;26.30;;;;;;;3.79;100.00;99510.28;5059467;28;20111;-70
2021/12/11 03:05:06;;;;;;;47.92;24.48;;;;;;;3.69;100.00;99496.00;5066137;28;20025;-70
2021/12/11 03:07:38;;;;;;;46.60;22.85;;;;;;;3.70;100.00;99498.56;5062834;28;20543;-71
2021/12/11 03:10:11;;;;;;;48.70;23.42;;;;;;;3.76;100.00;99514.00;5064554;28;20029;-70
2021/12/11 03:12:38;;;;;;;46.30;23.48;;;;;;;3.74;100.00;99507.97;5065282;28;20484;-71
2021/12/11 03:15:07;;;;;;;44.78;21.75;;;;;;;3.76;100.00;99505.19;5063986;28;20490;-70
2021/12/11 03:17:32;;;;;;;43.90;21.90;;;;;;;3.79;100.00;99521.75;5060624;28;20070;-70
2021/12/11 03:19:58;;;;;;;43.70;21.67;;;;;;;3.78;100.00;99522.69;5064061;28;20032;-70
2021/12/11 03:22:31;;;;;;;41.95;21.40;;;;;;;3.74;100.00;99523.88;5061668;28;20016;-70
2021/12/11 03:24:58;;;;;;;39.50;20.25;;;;;;;3.79;100.00;99524.41;5064866;28;20045;-70
2021/12/11 03:27:25;;;;;;;37.67;18.58;;;;;;;3.81;100.00;99525.13;5058507;28;20480;-70
2021/12/11 03:29:51;;;;;;;33.05;16.45;;;;;;;3.80;100.00;99519.94;5060630;28;20028;-70
2021/12/11 03:32:16;;;;;;;32.03;16.08;;;;;;;3.80;100.00;99531.38;5063153;28;20484;-70
2021/12/11 03:34:44;;;;;;;33.08;17.27;;;;;;;3.84;100.00;99532.03;5065118;28;20033;-70
2021/12/11 03:37:12;;;;;;;30.35;15.57;;;;;;;3.77;100.00;99515.69;5063851;28;20020;-70
2021/12/11 03:39:42;;;;;;;29.88;15.40;;;;;;;3.77;100.00;99521.00;5058168;28;20025;-70
2021/12/11 03:42:31;;;;;;;29.58;15.20;;;;;;;3.83;100.00;99525.00;5059697;28;20033;-70
2021/12/11 03:44:59;;;;;;;27.63;15.02;;;;;;;3.82;100.00;99537.44;5060623;28;20083;-70
2021/12/11 03:47:29;;;;;;;30.67;16.63;;;;;;;3.83;100.00;99541.78;5060910;28;20548;-70
2021/12/11 03:49:55;;;;;;;26.17;14.55;;;;;;;3.77;100.00;99539.56;5064317;28;20146;-70
2021/12/11 03:52:21;;;;;;;27.63;14.25;;;;;;;3.78;100.00;99543.06;5064100;28;20036;-70
2021/12/11 03:54:50;;;;;;;27.08;14.85;;;;;;;3.81;100.00;99558.75;5061188;28;20033;-70
2021/12/11 03:57:20;;;;;;;29.42;15.25;;;;;;;3.81;100.00;99564.91;5062695;28;20426;-70
2021/12/11 03:59:48;;;;;;;32.22;16.85;;;;;;;3.78;100.00;99554.50;5067161;28;20482;-70
2021/12/11 04:02:19;;;;;;;29.20;14.95;;;;;;;3.78;100.00;99553.69;5061229;28;20430;-70
2021/12/11 04:04:52;;;;;;;28.00;13.93;;;;;;;3.73;100.00;99545.19;5062413;28;20128;-70
2021/12/11 04:07:21;;;;;;;28.55;15.45;;;;;;;3.76;100.00;99555.59;5064454;28;20028;-70
2021/12/11 04:09:47;;;;;;;27.88;15.40;;;;;;;3.76;100.00;99544.97;5065841;28;20336;-70
2021/12/11 04:12:14;;;;;;;31.10;16.70;;;;;;;3.74;100.00;99544.25;5062592;28;20518;-70
2021/12/11 04:14:42;;;;;;;28.58;15.60;;;;;;;3.76;100.00;99544.97;5059196;28;20071;-70
2021/12/11 04:17:10;;;;;;;32.10;18.20;;;;;;;3.78;100.00;99537.78;5061183;28;20044;-70
2021/12/11 04:19:36;;;;;;;28.85;15.43;;;;;;;3.75;100.00;99538.00;5064438;28;20036;-70
2021/12/11 04:22:04;;;;;;;32.22;17.20;;;;;;;3.74;100.00;99537.13;5062551;28;20801;-70
2021/12/11 04:24:32;;;;;;;28.55;15.93;;;;;;;3.75;100.00;99543.28;5060325;28;20029;-70
2021/12/11 04:27:03;;;;;;;29.30;15.88;;;;;;;3.70;100.00;99542.75;5061645;28;20037;-70
2021/12/11 04:29:29;;;;;;;30.80;17.25;;;;;;;3.75;100.00;99548.59;5061316;28;20702;-70
2021/12/11 04:31:55;;;;;;;31.50;17.75;;;;;;;3.65;100.00;99527.19;5066795;28;20032;-70
2021/12/11 04:34:22;;;;;;;33.05;16.88;;;;;;;3.73;100.00;99553.16;5058562;28;20021;-70
2021/12/11 04:36:58;;;;;;;31.60;17.80;;;;;;;3.75;100.00;99557.41;5060356;28;20020;-70
2021/12/11 04:39:25;;;;;;;31.30;17.00;;;;;;;3.73;100.00;99563.75;5056982;28;20025;-70
2021/12/11 04:42:04;;;;;;;27.95;15.70;;;;;;;3.70;100.00;99563.97;5064036;28;20025;-70
2021/12/11 04:44:36;;;;;;;26.88;15.63;;;;;;;3.69;100.00;99564.94;5060395;28;20032;-70
2021/12/11 04:47:12;;;;;;;29.95;17.17;;;;;;;3.71;100.00;99574.47;5057789;28;20388;-70
2021/12/11 04:49:46;;;;;;;28.05;15.82;;;;;;;3.68;100.00;99573.88;5062586;28;20614;-70
2021/12/11 04:52:18;;;;;;;30.58;16.83;;;;;;;3.71;100.00;99573.66;5061043;28;20050;-70
2021/12/11 04:55:48;;;;;;;27.63;14.80;;;;;;;3.66;100.00;99566.03;5060207;28;20033;-69
2021/12/11 05:00:17;;;;;;;28.63;16.25;;;;;;;3.67;100.00;99567.69;5062366;28;20044;-70
2021/12/11 05:03:24;;;;;;;30.10;16.27;;;;;;;3.63;100.00;99560.06;5064976;28;20039;-70
2021/12/11 05:05:57;;;;;;;29.13;16.90;;;;;;;3.65;100.00;99563.47;5059685;28;20039;-70
2021/12/11 05:08:59;;;;;;;33.38;16.60;;;;;;;3.66;100.00;99571.31;5062541;28;20066;-70
2021/12/11 05:11:36;;;;;;;30.30;15.65;;;;;;;3.65;100.00;99576.72;5059474;28;20035;-70
2021/12/11 05:14:02;;;;;;;27.55;15.77;;;;;;;3.64;100.00;99575.88;5065852;28;20021;-69
2021/12/11 05:16:28;;;;;;;27.08;15.18;;;;;;;3.64;100.00;99580.34;5056450;28;20480;-70
2021/12/11 05:18:54;;;;;;;29.83;15.10;;;;;;;3.63;100.00;99582.16;5054988;28;20037;-70
2021/12/11 05:21:20;;;;;;;23.58;13.63;;;;;;;3.62;100.00;99596.38;5060032;28;20024;-70
2021/12/11 05:23:49;;;;;;;27.10;14.48;;;;;;;3.66;100.00;99613.75;5062130;28;20094;-70
2021/12/11 05:26:15;;;;;;;24.85;13.85;;;;;;;3.66;100.00;99618.19;5060984;28;20116;-70
2021/12/11 05:28:40;;;;;;;25.73;14.20;;;;;;;3.62;100.00;99617.56;5060765;28;20068;-70
2021/12/11 05:31:09;;;;;;;22.42;13.35;;;;;;;3.64;100.00;99617.47;5057819;28;20051;-72
2021/12/11 05:33:35;;;;;;;29.05;15.18;;;;;;;3.59;100.00;99625.75;5063848;28;20029;-71
2021/12/11 05:36:02;;;;;;;29.15;15.73;;;;;;;3.66;100.00;99647.34;5066249;28;20452;-71
2021/12/11 05:38:27;;;;;;;26.75;13.95;;;;;;;3.64;100.00;99646.63;5060587;28;20036;-72
2021/12/11 05:40:59;;;;;;;24.55;13.95;;;;;;;3.66;100.00;99650.84;5060644;28;20386;-71
2021/12/11 05:43:26;;;;;;;27.92;15.50;;;;;;;3.66;100.00;99655.31;5062234;28;20517;-72
2021/12/11 05:45:52;;;;;;;26.35;15.05;;;;;;;3.67;100.00;99654.34;5059347;28;20036;-71
2021/12/11 05:48:17;;;;;;;28.48;14.75;;;;;;;3.65;100.00;99650.97;5059995;28;20032;-71
2021/12/11 05:50:47;;;;;;;24.90;14.27;;;;;;;3.70;100.00;99659.44;5062937;28;20040;-71
2021/12/11 05:53:14;;;;;;;25.55;14.40;;;;;;;3.65;100.00;99654.44;5059809;28;20036;-72
2021/12/11 05:55:41;;;;;;;29.88;15.98;;;;;;;3.68;100.00;99666.66;5057578;28;20029;-72
2021/12/11 05:58:11;;;;;;;30.02;15.48;;;;;;;3.69;100.00;99665.69;5059934;28;20208;-72
2021/12/11 06:00:49;;;;;;;28.27;16.15;;;;;;;3.65;100.00;99670.34;5058588;28;20115;-69
2021/12/11 06:03:16;;;;;;;29.27;15.65;;;;;;;3.66;100.00;99687.13;5063231;28;20039;-72
2021/12/11 06:05:43;;;;;;;26.60;15.00;;;;;;;3.63;100.00;99687.31;5062768;28;20104;-70
2021/12/11 06:08:10;;;;;;;28.40;15.75;;;;;;;3.65;100.00;99693.38;5063314;28;20423;-70
2021/12/11 06:10:36;;;;;;;29.30;15.20;;;;;;;3.63;100.00;99692.63;5060090;28;20021;-70
2021/12/11 06:13:03;;;;;;;27.20;15.10;;;;;;;3.62;100.00;99701.56;5061696;28;20534;-71
2021/12/11 06:15:29;;;;;;;30.63;17.20;;;;;;;3.63;100.00;99708.53;5058048;28;20480;-70
2021/12/11 06:17:56;;;;;;;28.05;16.23;;;;;;;3.66;100.00;99719.78;5065967;28;20033;-71
2021/12/11 06:20:25;;;;;;;29.63;16.20;;;;;;;3.68;100.00;99727.66;5062121;28;20025;-70
2021/12/11 06:22:51;;;;;;;27.23;15.23;;;;;;;3.63;100.00;99730.59;5058524;28;20706;-70
2021/12/11 06:25:21;;;;;;;30.23;16.35;;;;;;;3.60;100.00;99728.16;5060791;28;20124;-70
2021/12/11 06:27:48;;;;;;;26.38;15.93;;;;;;;3.60;100.00;99740.56;5053183;28;20134;-70
2021/12/11 06:30:16;;;;;;;33.60;18.17;;;;;;;3.59;100.00;99731.78;5053874;28;20028;-71
2021/12/11 06:32:43;;;;;;;32.35;18.95;;;;;;;3.60;100.00;99741.44;5059537;28;20554;-70
2021/12/11 06:35:17;;;;;;;39.47;20.75;;;;;;;3.61;100.00;99744.94;5057762;28;20478;-70
2021/12/11 06:37:48;;;;;;;35.03;19.50;;;;;;;3.62;100.00;99741.31;5065950;28;20555;-73
2021/12/11 06:40:22;;;;;;;39.92;19.95;;;;;;;3.58;100.00;99743.31;5064347;28;20033;-74
2021/12/11 06:42:48;;;;;;;36.50;18.98;;;;;;;3.54;100.00;99738.31;5065321;28;20484;-71
2021/12/11 06:45:13;;;;;;;36.80;20.02;;;;;;;3.57;100.00;99756.69;5063570;28;20049;-70
2021/12/11 06:47:39;;;;;;;35.28;19.67;;;;;;;3.53;100.00;99753.41;5058741;28;20032;-70
2021/12/11 06:50:06;;;;;;;38.63;20.55;;;;;;;3.54;100.00;99757.75;5063180;28;20033;-70
2021/12/11 06:52:32;;;;;;;37.00;19.88;;;;;;;3.57;100.00;99756.69;5062665;28;20033;-70
2021/12/11 06:54:58;;;;;;;38.58;19.40;;;;;;;3.52;100.00;99769.41;5063223;28;20033;-70
2021/12/11 06:57:24;;;;;;;38.97;19.58;;;;;;;3.52;100.00;99774.72;5057960;28;20358;-70
2021/12/11 06:59:50;;;;;;;41.17;21.77;;;;;;;3.48;100.00;99775.88;5065932;28;20479;-70
2021/12/11 07:02:19;;;;;;;45.80;22.05;;;;;;;3.44;100.00;99777.88;5061731;28;20036;-70
2021/12/11 07:04:46;;;;;;;42.13;20.58;;;;;;;3.53;100.00;99798.47;5059774;28;20031;-71
2021/12/11 07:07:18;;;;;;;41.22;20.80;;;;;;;3.53;100.00;99797.59;5061166;28;20036;-70
2021/12/11 07:09:44;;;;;;;44.58;21.42;;;;;;;3.51;100.00;99804.84;5059386;28;20032;-70
2021/12/11 07:12:10;;;;;;;40.53;21.45;;;;;;;3.51;100.00;99810.97;5063265;28;20031;-71
2021/12/11 07:14:35;;;;;;;41.33;20.10;;;;;;;3.51;100.00;99805.66;5061406;28;20040;-70
2021/12/11 07:17:01;;;;;;;41.80;20.52;;;;;;;3.46;100.00;99797.19;5064782;28;20028;-70
2021/12/11 07:19:27;;;;;;;44.85;21.45;;;;;;;3.51;100.00;99807.47;5065685;28;20099;-70
2021/12/11 07:21:54;;;;;;;40.38;20.48;;;;;;;3.50;100.00;99811.06;5069049;28;20035;-70
2021/12/11 07:24:30;;;;;;;42.78;21.83;;;;;;;3.47;100.00;99808.63;5060807;28;20045;-70
2021/12/11 07:26:56;;;;;;;46.22;21.98;;;;;;;3.50;100.00;99819.00;5065439;28;20032;-70
2021/12/11 07:29:23;;;;;;;39.22;19.75;;;;;;;3.51;100.00;99815.44;5063065;28;20116;-71
2021/12/11 07:31:50;;;;;;;42.47;20.50;;;;;;;3.52;100.00;99817.94;5057884;28;20032;-70
2021/12/11 07:34:16;;;;;;;39.63;19.98;;;;;;;3.52;100.00;99817.13;5055223;28;20467;-70
2021/12/11 07:36:44;;;;;;;39.35;20.60;;;;;;;3.55;100.00;99820.41;5062206;28;20032;-71
2021/12/11 07:39:14;;;;;;;42.83;20.23;;;;;;;3.54;100.00;99824.00;5059234;28;20082;-70
2021/12/11 07:41:40;;;;;;;40.13;20.77;;;;;;;3.55;100.00;99828.34;5062684;28;20021;-70
2021/12/11 07:44:06;;;;;;;37.95;19.42;;;;;;;3.55;100.00;99830.19;5065761;28;20103;-70
2021/12/11 07:46:34;;;;;;;40.80;20.42;;;;;;;3.54;100.00;99828.47;5058202;28;20025;-70
2021/12/11 07:48:59;;;;;;;39.30;19.77;;;;;;;3.51;100.00;99826.88;5059796;28;20067;-68
2021/12/11 07:51:27;;;;;;;40.50;20.42;;;;;;;3.55;100.00;99831.00;5057484;28;20122;-69
2021/12/11 07:53:54;;;;;;;37.92;20.38;;;;;;;3.55;100.00;99836.31;5063968;28;20032;-69
2021/12/11 07:56:21;;;;;;;44.20;20.83;;;;;;;3.57;100.00;99850.31;5057328;28;20029;-69
2021/12/11 07:58:49;;;;;;;38.97;19.73;;;;;;;3.61;100.00;99840.38;5060673;28;20086;-70
2021/12/11 08:01:15;;;;;;;43.58;21.50;;;;;;;3.56;100.00;99840.69;5063443;28;20032;-69
2021/12/11 08:03:41;;;;;;;38.03;19.70;;;;;;;3.59;100.00;99843.13;5061332;28;20029;-69
2021/12/11 08:06:09;;;;;;;45.53;21.88;;;;;;;3.60;100.00;99846.59;5064173;28;20043;-70
2021/12/11 08:08:35;;;;;;;43.28;20.45;;;;;;;3.60;100.00;99842.16;5063298;28;20476;-69
2021/12/11 08:11:07;;;;;;;42.45;20.75;;;;;;;3.63;100.00;99841.09;5054629;28;20468;-69
2021/12/11 08:13:33;;;;;;;42.10;21.73;;;;;;;3.63;100.00;99841.09;5057341;28;20097;-69
2021/12/11 08:15:59;;;;;;;42.85;22.02;;;;;;;3.64;100.00;99851.59;5066058;28;20025;-69
2021/12/11 08:18:26;;;;;;;38.10;20.60;;;;;;;3.66;100.00;99848.84;5065502;28;20025;-70
2021/12/11 08:20:53;;;;;;;42.92;21.48;;;;;;;3.65;100.00;99852.47;5062115;28;20056;-70
2021/12/11 08:23:19;;;;;;;47.05;22.83;;;;;;;3.65;100.00;99855.13;5060598;28;20043;-70
2021/12/11 08:25:47;;;;;;;42.42;21.50;;;;;;;3.68;100.00;99860.22;5061583;28;20468;-69
2021/12/11 08:28:19;;;;;;;46.67;21.90;;;;;;;3.67;100.00;99861.16;5063364;28;20028;-70
2021/12/11 08:30:48;;;;;;;44.72;23.38;;;;;;;3.71;100.00;99870.63;5063005;28;20052;-68
2021/12/11 08:33:15;;;;;;;48.17;22.80;;;;;;;3.69;100.00;99870.72;5064779;28;20380;-70
2021/12/11 08:35:41;;;;;;;48.08;24.83;;;;;;;3.59;100.00;99853.72;5059171;28;20494;-70
2021/12/11 08:38:08;;;;;;;47.55;23.65;;;;;;;3.69;100.00;99877.81;5059978;28;20117;-70
2021/12/11 08:40:41;;;;;;;44.67;21.70;;;;;;;3.76;100.00;99900.31;5056790;28;20146;-69
2021/12/11 08:43:09;;;;;;;47.63;22.13;;;;;;;3.70;100.00;99901.56;5067509;28;20044;-69
2021/12/11 08:45:49;;;;;;;44.17;21.75;;;;;;;3.72;100.00;99905.00;5053982;28;20273;-70
2021/12/11 08:48:21;;;;;;;43.20;21.00;;;;;;;3.77;100.00;99918.78;5057403;28;20480;-70
2021/12/11 08:50:50;;;;;;;43.35;21.77;;;;;;;3.77;100.00;99926.72;5060185;28;20028;-70
2021/12/11 08:53:16;;;;;;;41.03;20.48;;;;;;;3.80;100.00;99928.31;5055956;28;20043;-70
2021/12/11 08:55:46;;;;;;;42.65;19.85;;;;;;;3.76;100.00;99919.75;5058198;28;20032;-70
2021/12/11 08:58:16;;;;;;;43.83;20.75;;;;;;;3.78;100.00;99928.41;5058395;28;20029;-70
2021/12/11 09:00:46;;;;;;;40.05;20.88;;;;;;;3.77;100.00;99925.91;5057218;28;20052;-70
2021/12/11 09:03:36;;;;;;;40.92;20.52;;;;;;;3.83;100.00;99933.44;5059674;28;20036;-69
2021/12/11 09:06:07;;;;;;;39.92;20.17;;;;;;;3.84;100.00;99930.66;5053321;28;20178;-69
2021/12/11 09:08:43;;;;;;;42.60;20.90;;;;;;;3.83;100.00;99928.13;5061645;28;20033;-69
2021/12/11 09:11:41;;;;;;;37.63;19.65;;;;;;;3.82;100.00;99923.78;5056275;28;20028;-69
2021/12/11 09:14:14;;;;;;;39.90;19.27;;;;;;;3.78;100.00;99907.22;5044361;28;20506;-70
2021/12/11 09:16:49;;;;;;;41.42;20.58;;;;;;;3.84;100.00;99913.94;5055325;28;20027;-70
2021/12/11 09:19:20;;;;;;;37.28;19.23;;;;;;;3.83;100.00;99907.75;5060301;28;20033;-70
2021/12/11 09:21:56;;;;;;;38.40;19.60;;;;;;;3.87;100.00;99911.06;5056756;28;20090;-70
2021/12/11 09:24:31;;;;;;;38.28;19.10;;;;;;;3.89;100.00;99914.44;5058004;28;20052;-70
2021/12/11 09:27:26;;;;;;;39.80;18.88;;;;;;;3.87;100.00;99916.38;5059044;28;20386;-70
2021/12/11 09:30:01;;;;;;;34.10;18.00;;;;;;;3.91;100.00;99918.72;5055201;28;20546;-69
2021/12/11 09:32:30;;;;;;;38.38;19.02;;;;;;;3.88;100.00;99910.97;5049814;28;20072;-69
2021/12/11 09:35:02;;;;;;;37.92;19.10;;;;;;;3.83;100.00;99899.81;5060316;28;20033;-69
2021/12/11 09:37:29;;;;;;;38.33;18.50;;;;;;;3.83;100.00;99901.59;5056125;28;20043;-69
2021/12/11 09:39:59;;;;;;;36.65;18.75;;;;;;;3.90;100.00;99913.53;5054705;28;20021;-69
2021/12/11 09:42:24;;;;;;;39.67;20.85;;;;;;;3.90;100.00;99922.31;5062824;28;20475;-70
2021/12/11 09:44:57;;;;;;;37.42;20.27;;;;;;;3.83;100.00;99913.06;5059397;28;20031;-70
2021/12/11 09:47:31;;;;;;;36.60;19.57;;;;;;;3.89;100.00;99925.06;5061191;28;20024;-70
2021/12/11 09:50:08;;;;;;;39.85;18.92;;;;;;;3.93;100.00;99937.16;5063889;28;20206;-70
2021/12/11 09:52:37;;;;;;;35.58;18.83;;;;;;;3.90;100.00;99927.63;5056092;28;20028;-70
2021/12/11 09:55:13;;;;;;;34.70;19.27;;;;;;;3.91;100.00;99934.66;5060708;28;20033;-70
2021/12/11 09:57:43;;;;;;;37.60;20.02;;;;;;;3.92;100.00;99936.34;5062531;28;20028;-70
2021/12/11 10:00:37;;;;;;;40.55;20.40;;;;;;;3.94;100.00;99936.22;5058358;28;20043;-70
2021/12/11 10:03:05;;;;;;;55.05;26.55;;;;;;;3.93;100.00;99939.81;5050477;28;20037;-70
2021/12/11 10:05:43;;;;;;;49.33;23.70;;;;;;;3.95;100.00;99937.91;5061384;28;20032;-70
2021/12/11 10:08:32;;;;;;;48.30;23.33;;;;;;;4.02;100.00;99955.13;5047822;28;20087;-70
2021/12/11 10:11:17;;;;;;;39.97;21.95;;;;;;;4.02;100.00;99949.81;5056559;28;20590;-70
2021/12/11 10:13:51;;;;;;;39.38;20.95;;;;;;;4.06;100.00;99946.00;5055913;28;20025;-70
2021/12/11 10:16:20;;;;;;;31.52;19.45;;;;;;;3.95;100.00;99924.66;5070663;28;20048;-70
2021/12/11 10:18:49;;;;;;;34.15;18.50;;;;;;;4.09;100.00;99941.34;5062447;28;20116;-70
2021/12/11 10:21:25;;;;;;;39.78;20.38;;;;;;;4.11;100.00;99934.16;5067032;28;20443;-71
2021/12/11 10:23:54;;;;;;;37.35;18.52;;;;;;;4.06;100.00;99919.47;5065280;28;20052;-70
2021/12/11 10:26:23;;;;;;;34.03;18.17;;;;;;;4.05;100.00;99918.63;5070278;28;20043;-70
2021/12/11 10:28:52;;;;;;;32.65;18.17;;;;;;;4.16;100.00;99939.16;5063844;28;20308;-70
2021/12/11 10:31:23;;;;;;;32.33;17.50;;;;;;;4.16;100.00;99937.31;5068179;28;20426;-70
2021/12/11 10:33:49;;;;;;;33.45;17.58;;;;;;;4.16;100.00;99921.41;5064016;28;20028;-70
2021/12/11 10:36:19;;;;;;;28.30;16.65;;;;;;;4.17;100.00;99930.22;5070911;28;20480;-70
2021/12/11 10:38:45;;;;;;;33.45;16.25;;;;;;;4.16;100.00;99932.00;5057731;28;20036;-70
2021/12/11 10:41:12;;;;;;;31.35;17.85;;;;;;;4.13;100.00;99928.75;5061349;28;20020;-70
2021/12/11 10:43:54;;;;;;;28.67;16.38;;;;;;;4.14;100.00;99925.13;5061604;28;20141;-70
2021/12/11 10:46:25;;;;;;;31.05;17.25;;;;;;;4.17;100.00;99919.59;5064398;28;20033;-70
2021/12/11 10:48:52;;;;;;;29.17;16.27;;;;;;;4.21;100.00;99934.38;5059164;28;20553;-71
2021/12/11 10:51:46;;;;;;;29.90;17.85;;;;;;;4.19;100.00;99925.63;5061245;28;20094;-71
2021/12/11 10:54:14;;;;;;;31.60;17.27;;;;;;;4.22;100.00;99922.78;5057264;28;20036;-71
2021/12/11 10:56:41;;;;;;;30.15;17.52;;;;;;;4.18;100.00;99921.31;5064279;28;20021;-71
2021/12/11 10:59:14;;;;;;;28.05;16.40;;;;;;;4.21;100.00;99915.78;5058126;28;20024;-71
2021/12/11 11:02:05;;;;;;;32.08;17.83;;;;;;;4.25;100.00;99914.63;5060423;28;20529;-71
2021/12/11 11:04:37;;;;;;;31.42;16.88;;;;;;;4.28;100.00;99917.06;5058840;28;20037;-71
2021/12/11 11:07:04;;;;;;;26.95;16.42;;;;;;;4.38;100.00;99926.09;5061301;28;20032;-71
2021/12/11 11:09:31;;;;;;;31.70;18.40;;;;;;;4.34;100.00;99914.00;5067063;28;20387;-70
2021/12/11 11:12:00;;;;;;;34.13;19.00;;;;;;;4.38;100.00;99916.31;5065455;28;20033;-71
2021/12/11 11:14:27;;;;;;;29.63;16.30;;;;;;;4.38;100.00;99920.78;5064545;28;20483;-71
2021/12/11 11:17:00;;;;;;;28.98;16.10;;;;;;;4.39;100.00;99933.13;5062518;28;20104;-71
2021/12/11 11:19:28;;;;;;;28.30;15.52;;;;;;;4.42;100.00;99935.56;5059758;28;20084;-71
2021/12/11 11:21:58;;;;;;;30.38;16.58;;;;;;;4.41;100.00;99947.97;5057719;28;20051;-71
2021/12/11 11:24:30;;;;;;;29.20;16.13;;;;;;;4.39;100.00;99941.09;5064129;28;20044;-70
2021/12/11 11:26:57;;;;;;;30.70;17.33;;;;;;;4.43;100.00;99939.91;5064629;28;20048;-71
2021/12/11 11:29:24;;;;;;;29.38;15.82;;;;;;;4.48;100.00;99948.38;5062702;28;20484;-71
2021/12/11 11:31:56;;;;;;;29.73;16.55;;;;;;;4.48;100.00;99943.06;5066496;28;20028;-70
2021/12/11 11:34:24;;;;;;;29.77;17.35;;;;;;;4.51;100.00;99943.72;5057621;28;20505;-71
2021/12/11 11:36:51;;;;;;;35.60;18.77;;;;;;;4.48;100.00;99932.47;5049670;28;20029;-71
2021/12/11 11:39:20;;;;;;;32.28;16.88;;;;;;;4.50;100.00;99938.53;5063025;28;20033;-70